Time;durP1;ratioP1;P1;durP2;ratioP2;P2;SDS_P1;SDS_P2;PMS_P1;PMS_P2;Temp;Humidity;BMP_temperature;BMP_pressure;BME280_temperature;BME280_humidity;BME280_pressure;Samples;Min_cycle;Max_cycle;Signal;HPM_P1;HPM_P2
2021/12/21 00:00:24;;;;;;;22.77;10.00;;;;;;;;;;4981146;28;20055;-66
2021/12/21 00:02:52;;;;;;;18.02;9.27;;;;;;;;;;4963887;28;20043;-66
2021/12/21 00:05:21;;;;;;;24.90;9.52;;;;;;;;;;4972854;28;20055;-65
2021/12/21 00:07:49;;;;;;;17.20;8.02;;;;;;;;;;4972440;28;20098;-65
2021/12/21 00:10:18;;;;;;;17.25;9.25;;;;;;;;;;4972652;28;20050;-65
2021/12/21 00:13:03;;;;;;;25.10;9.80;;;;;;;;;;4972723;28;20086;-65
2021/12/21 00:20:52;;;;;;;34.30;14.68;;;;;;;;;;4972437;28;20055;-64
2021/12/21 00:23:41;;;;;;;29.70;13.93;;;;;;;;;;4972255;28;20051;-64
2021/12/21 00:26:10;;;;;;;32.30;15.20;;;;;;;;;;4973323;28;20054;-64
2021/12/21 00:28:51;;;;;;;22.77;11.52;;;;;;;;;;4975696;28;20051;-65
2021/12/21 00:31:18;;;;;;;22.77;11.57;;;;;;;;;;4978890;28;20042;-66
2021/12/21 00:33:46;;;;;;;21.23;10.10;;;;;;;;;;4989065;28;20109;-64
2021/12/21 00:36:15;;;;;;;14.30;8.65;;;;;;;;;;4987344;28;20074;-65
2021/12/21 00:38:42;;;;;;;20.70;9.70;;;;;;;;;;4976009;28;20458;-64
2021/12/21 00:41:09;;;;;;;20.95;9.75;;;;;;;;;;4976141;28;20042;-65
2021/12/21 00:43:36;;;;;;;20.45;9.52;;;;;;;;;;4975445;28;20051;-64
2021/12/21 00:46:02;;;;;;;20.40;9.43;;;;;;;;;;4976220;28;20059;-66
2021/12/21 00:48:31;;;;;;;21.08;8.45;;;;;;;;;;4958355;28;20059;-64
2021/12/21 00:51:01;;;;;;;17.70;8.98;;;;;;;;;;4982743;28;20058;-65
2021/12/21 00:53:28;;;;;;;17.60;9.88;;;;;;;;;;4983162;28;20109;-65
2021/12/21 00:55:55;;;;;;;22.10;9.35;;;;;;;;;;4976031;28;20055;-65
2021/12/21 00:58:22;;;;;;;23.95;11.80;;;;;;;;;;4976685;28;20062;-66
2021/12/21 01:00:49;;;;;;;24.45;10.23;;;;;;;;;;4982835;28;20086;-65
2021/12/21 01:03:17;;;;;;;19.45;9.60;;;;;;;;;;4988334;28;20082;-65
2021/12/21 01:05:58;;;;;;;15.88;8.80;;;;;;;;;;4992784;28;20061;-65
2021/12/21 01:08:28;;;;;;;17.90;8.48;;;;;;;;;;4993278;28;20066;-65
2021/12/21 01:16:42;;;;;;;15.10;7.88;;;;;;;;;;4991272;28;20054;-66
2021/12/21 01:19:21;;;;;;;27.83;9.10;;;;;;;;;;4992777;28;20055;-65
2021/12/21 01:22:14;;;;;;;14.93;8.10;;;;;;;;;;4990943;28;20079;-65
2021/12/21 01:30:29;;;;;;;23.23;9.13;;;;;;;;;;4973493;28;20050;-65
2021/12/21 01:35:39;;;;;;;19.55;10.07;;;;;;;;;;4986753;28;20082;-66
2021/12/21 01:40:48;;;;;;;16.92;8.40;;;;;;;;;;4985677;28;20493;-64
2021/12/21 01:51:12;;;;;;;19.35;7.88;;;;;;;;;;4974453;28;20557;-66
2021/12/21 01:53:39;;;;;;;19.35;8.60;;;;;;;;;;4974393;28;20105;-64
2021/12/21 01:56:06;;;;;;;17.70;8.93;;;;;;;;;;4974458;28;20054;-66
2021/12/21 01:58:33;;;;;;;20.50;8.60;;;;;;;;;;4974056;28;20050;-64
2021/12/21 02:01:01;;;;;;;20.98;9.07;;;;;;;;;;4974326;28;20050;-65
2021/12/21 02:03:28;;;;;;;19.50;8.85;;;;;;;;;;4974319;28;20094;-64
2021/12/21 02:05:54;;;;;;;17.95;8.77;;;;;;;;;;4974223;28;20399;-66
2021/12/21 02:08:21;;;;;;;18.92;8.60;;;;;;;;;;4974159;28;20062;-66
2021/12/21 02:10:48;;;;;;;16.92;8.60;;;;;;;;;;4974243;28;20047;-65
2021/12/21 02:13:14;;;;;;;17.70;8.73;;;;;;;;;;4974154;28;20466;-66
2021/12/21 02:15:41;;;;;;;15.45;8.45;;;;;;;;;;4974118;28;20473;-64
2021/12/21 02:21:03;;;;;;;19.00;9.50;;;;;;;;;;4986659;28;20050;-64
2021/12/21 02:23:35;;;;;;;15.52;8.63;;;;;;;;;;4985715;28;20074;-65
2021/12/21 02:31:11;;;;;;;14.90;9.05;;;;;;;;;;4979195;28;20105;-65
2021/12/21 02:33:38;;;;;;;17.10;9.27;;;;;;;;;;4982002;28;20086;-65
2021/12/21 02:36:05;;;;;;;18.60;8.55;;;;;;;;;;4982517;28;20075;-65
2021/12/21 02:38:32;;;;;;;16.63;8.07;;;;;;;;;;4981480;28;20109;-66
2021/12/21 02:40:59;;;;;;;16.70;7.88;;;;;;;;;;4984564;28;20054;-64
2021/12/21 02:43:28;;;;;;;19.70;8.10;;;;;;;;;;4982223;28;20075;-65
2021/12/21 02:45:55;;;;;;;14.60;7.80;;;;;;;;;;4985181;28;20506;-65
2021/12/21 02:48:21;;;;;;;14.90;7.90;;;;;;;;;;4976144;28;20050;-64
2021/12/21 02:50:48;;;;;;;16.40;7.97;;;;;;;;;;4973266;28;20054;-65
2021/12/21 02:53:15;;;;;;;18.60;8.50;;;;;;;;;;4973421;28;20101;-65
2021/12/21 02:55:41;;;;;;;18.30;8.60;;;;;;;;;;4973374;28;20458;-64
2021/12/21 02:58:08;;;;;;;18.52;8.35;;;;;;;;;;4973037;28;20109;-65
2021/12/21 03:00:35;;;;;;;15.27;8.07;;;;;;;;;;4973352;28;20054;-65
2021/12/21 03:03:07;;;;;;;14.70;8.80;;;;;;;;;;4973947;28;20074;-65
2021/12/21 03:05:36;;;;;;;17.10;8.07;;;;;;;;;;4973060;28;20059;-66
2021/12/21 03:08:36;;;;;;;17.02;7.65;;;;;;;;;;4956405;28;20046;-65
2021/12/21 03:14:03;;;;;;;18.13;8.50;;;;;;;;;;4973027;28;20050;-66
2021/12/21 03:16:35;;;;;;;16.20;8.68;;;;;;;;;;4972974;28;20050;-66
2021/12/21 03:19:05;;;;;;;17.13;8.07;;;;;;;;;;4976469;28;20101;-65
2021/12/21 03:21:34;;;;;;;13.82;7.38;;;;;;;;;;4976781;28;20058;-65
2021/12/21 03:24:01;;;;;;;19.65;8.75;;;;;;;;;;4977245;28;20055;-66
2021/12/21 03:26:28;;;;;;;17.17;8.63;;;;;;;;;;4978305;28;20491;-66
2021/12/21 03:28:54;;;;;;;17.27;9.02;;;;;;;;;;4978597;28;20046;-66
2021/12/21 03:31:21;;;;;;;17.13;8.45;;;;;;;;;;4978517;28;20060;-66
2021/12/21 03:33:48;;;;;;;13.25;7.30;;;;;;;;;;4974733;28;20117;-65
2021/12/21 03:36:18;;;;;;;15.40;8.07;;;;;;;;;;4973006;28;20047;-65
2021/12/21 03:39:08;;;;;;;19.45;8.63;;;;;;;;;;4972689;28;20051;-66
2021/12/21 03:41:38;;;;;;;16.15;7.72;;;;;;;;;;4972884;28;20106;-64
2021/12/21 03:44:05;;;;;;;17.35;8.90;;;;;;;;;;4972981;28;20047;-66
2021/12/21 03:46:32;;;;;;;19.95;8.05;;;;;;;;;;4972847;28;20490;-66
2021/12/21 03:49:07;;;;;;;18.80;8.73;;;;;;;;;;4979540;28;20050;-66
2021/12/21 03:51:35;;;;;;;19.17;8.75;;;;;;;;;;4979304;28;20078;-64
2021/12/21 03:54:02;;;;;;;11.77;7.32;;;;;;;;;;4976824;28;20069;-64
2021/12/21 03:58:56;;;;;;;17.92;9.35;;;;;;;;;;4978698;28;20082;-66
2021/12/21 04:01:23;;;;;;;19.95;9.57;;;;;;;;;;4978320;28;20055;-65
2021/12/21 04:03:49;;;;;;;21.63;8.98;;;;;;;;;;4977802;28;20102;-66
2021/12/21 04:06:16;;;;;;;23.50;9.57;;;;;;;;;;4959323;28;20050;-66
2021/12/21 04:08:45;;;;;;;23.15;10.02;;;;;;;;;;4976349;28;20402;-65
2021/12/21 04:11:12;;;;;;;12.77;8.52;;;;;;;;;;4976450;28;20101;-65
2021/12/21 04:13:38;;;;;;;18.65;9.90;;;;;;;;;;4963106;28;20459;-65
2021/12/21 04:16:06;;;;;;;19.98;9.40;;;;;;;;;;4957040;29;20086;-65
2021/12/21 04:18:36;;;;;;;19.15;9.13;;;;;;;;;;4958702;28;20047;-66
2021/12/21 04:21:04;;;;;;;16.40;9.45;;;;;;;;;;4961459;29;20533;-64
2021/12/21 04:23:31;;;;;;;17.98;9.75;;;;;;;;;;4961883;29;20051;-66
2021/12/21 04:25:58;;;;;;;18.63;9.02;;;;;;;;;;4961772;29;20051;-65
2021/12/21 04:28:25;;;;;;;22.73;10.18;;;;;;;;;;4961184;28;20133;-66
2021/12/21 04:30:52;;;;;;;17.60;9.38;;;;;;;;;;4962910;29;20051;-65
2021/12/21 04:33:18;;;;;;;22.90;9.32;;;;;;;;;;4950847;28;20047;-66
2021/12/21 04:35:45;;;;;;;18.77;9.45;;;;;;;;;;4956676;29;20055;-65
2021/12/21 04:38:28;;;;;;;18.98;9.77;;;;;;;;;;4956434;28;20055;-65
2021/12/21 04:41:08;;;;;;;17.40;9.55;;;;;;;;;;4960324;28;20097;-66
2021/12/21 04:43:35;;;;;;;18.52;9.10;;;;;;;;;;4975895;28;20046;-65
2021/12/21 04:46:02;;;;;;;15.95;9.20;;;;;;;;;;4975796;28;20055;-64
2021/12/21 04:48:29;;;;;;;18.95;8.38;;;;;;;;;;4975594;28;20429;-66
2021/12/21 04:50:55;;;;;;;23.30;9.35;;;;;;;;;;4975800;28;20047;-65
2021/12/21 04:53:23;;;;;;;17.92;8.20;;;;;;;;;;4975349;28;20453;-65
2021/12/21 04:55:51;;;;;;;18.08;8.30;;;;;;;;;;4975701;28;20058;-65
2021/12/21 04:58:18;;;;;;;17.98;8.25;;;;;;;;;;4975296;28;20050;-65
2021/12/21 05:00:45;;;;;;;16.10;8.93;;;;;;;;;;4975757;28;20054;-65
2021/12/21 05:03:11;;;;;;;24.90;10.27;;;;;;;;;;4975420;28;20129;-66
2021/12/21 05:05:39;;;;;;;15.40;8.52;;;;;;;;;;4975695;28;20051;-65
2021/12/21 05:08:26;;;;;;;17.67;9.00;;;;;;;;;;4979029;28;20054;-66
2021/12/21 05:10:58;;;;;;;17.88;8.70;;;;;;;;;;4979625;28;20050;-66
2021/12/21 05:13:27;;;;;;;17.08;9.20;;;;;;;;;;4974235;28;20047;-65
2021/12/21 05:15:54;;;;;;;20.48;8.77;;;;;;;;;;4978408;28;20047;-66
2021/12/21 05:18:22;;;;;;;21.08;10.05;;;;;;;;;;4977055;28;20054;-66
2021/12/21 05:20:49;;;;;;;17.23;9.00;;;;;;;;;;4975470;28;20413;-65
2021/12/21 05:23:15;;;;;;;15.35;8.95;;;;;;;;;;4974797;28;20051;-66
2021/12/21 05:25:42;;;;;;;18.35;9.32;;;;;;;;;;4975076;28;20066;-65
2021/12/21 05:28:11;;;;;;;16.85;9.15;;;;;;;;;;4974652;28;20055;-65
2021/12/21 05:30:38;;;;;;;17.45;9.25;;;;;;;;;;4974881;28;20058;-65
2021/12/21 05:33:05;;;;;;;15.43;8.75;;;;;;;;;;4974697;28;20113;-65
2021/12/21 05:35:33;;;;;;;16.55;8.77;;;;;;;;;;4974867;28;20109;-64
2021/12/21 05:38:03;;;;;;;18.17;9.32;;;;;;;;;;4974703;28;20055;-65
2021/12/21 05:40:34;;;;;;;18.17;9.45;;;;;;;;;;4974717;28;20055;-64
2021/12/21 05:43:01;;;;;;;14.32;8.48;;;;;;;;;;4974818;28;20403;-65
2021/12/21 05:45:28;;;;;;;14.93;8.93;;;;;;;;;;4974756;28;20434;-65
2021/12/21 05:47:55;;;;;;;16.38;8.60;;;;;;;;;;4974633;28;20055;-66
2021/12/21 05:50:21;;;;;;;17.88;8.98;;;;;;;;;;4974795;28;20421;-65
2021/12/21 05:52:48;;;;;;;14.77;8.38;;;;;;;;;;4974748;28;20042;-65
2021/12/21 05:55:16;;;;;;;19.52;8.50;;;;;;;;;;4974460;28;20051;-67
2021/12/21 05:57:43;;;;;;;15.88;9.00;;;;;;;;;;4974193;28;20050;-65
2021/12/21 06:00:12;;;;;;;17.38;8.00;;;;;;;;;;4974508;28;20496;-63
2021/12/21 06:02:39;;;;;;;15.27;8.73;;;;;;;;;;4974227;28;20417;-65
2021/12/21 06:05:07;;;;;;;15.88;9.10;;;;;;;;;;4974342;28;20051;-64
2021/12/21 06:07:34;;;;;;;20.08;10.63;;;;;;;;;;4974350;28;20481;-66
2021/12/21 06:10:11;;;;;;;16.83;9.13;;;;;;;;;;4974643;28;20066;-65
2021/12/21 06:13:08;;;;;;;20.98;10.75;;;;;;;;;;4973951;28;20042;-66
2021/12/21 06:26:14;;;;;;;19.90;10.32;;;;;;;;;;4974161;28;20047;-65
2021/12/21 06:28:43;;;;;;;19.10;9.23;;;;;;;;;;4973866;28;20047;-65
2021/12/21 06:31:09;;;;;;;16.20;8.75;;;;;;;;;;4974049;28;20593;-65
2021/12/21 06:33:36;;;;;;;18.35;8.32;;;;;;;;;;4973579;28;20101;-65
2021/12/21 06:36:03;;;;;;;17.88;9.00;;;;;;;;;;4973758;28;20054;-64
2021/12/21 06:38:30;;;;;;;17.75;8.52;;;;;;;;;;4973526;28;20101;-65
2021/12/21 06:40:57;;;;;;;17.58;8.75;;;;;;;;;;4973840;28;20474;-67
2021/12/21 06:43:24;;;;;;;25.33;8.52;;;;;;;;;;4973412;28;20494;-63
2021/12/21 06:51:17;;;;;;;17.88;9.30;;;;;;;;;;4957738;28;20062;-66
2021/12/21 06:53:47;;;;;;;19.42;8.80;;;;;;;;;;4955056;28;20090;-65
2021/12/21 06:56:14;;;;;;;15.75;8.80;;;;;;;;;;4971469;28;20110;-66
2021/12/21 06:58:40;;;;;;;17.45;9.15;;;;;;;;;;4958150;28;20098;-66
2021/12/21 07:01:07;;;;;;;17.83;8.48;;;;;;;;;;4965837;28;20058;-66
2021/12/21 07:03:36;;;;;;;24.27;9.73;;;;;;;;;;4956274;28;20051;-66
2021/12/21 07:06:06;;;;;;;18.50;9.48;;;;;;;;;;4956059;28;20055;-67
2021/12/21 07:08:44;;;;;;;19.77;9.18;;;;;;;;;;4959838;28;20063;-67
2021/12/21 07:11:58;;;;;;;19.05;8.68;;;;;;;;;;4956229;28;20158;-67
2021/12/21 07:19:33;;;;;;;18.48;9.60;;;;;;;;;;4956678;28;20126;-65
2021/12/21 07:21:59;;;;;;;15.77;9.15;;;;;;;;;;4958619;28;20055;-65
2021/12/21 07:24:26;;;;;;;22.52;9.57;;;;;;;;;;4960173;28;20051;-65
2021/12/21 07:26:53;;;;;;;19.67;8.63;;;;;;;;;;4958593;28;20043;-66
2021/12/21 07:29:19;;;;;;;21.48;9.10;;;;;;;;;;4956474;28;20577;-65
2021/12/21 07:31:46;;;;;;;17.80;8.52;;;;;;;;;;4958166;28;20046;-65
2021/12/21 07:34:13;;;;;;;16.70;8.75;;;;;;;;;;4957069;28;20055;-65
2021/12/21 07:36:42;;;;;;;18.52;8.88;;;;;;;;;;4957375;28;20047;-65
2021/12/21 07:39:12;;;;;;;18.45;8.70;;;;;;;;;;4958409;28;20561;-65
2021/12/21 07:41:40;;;;;;;18.70;9.27;;;;;;;;;;4962300;28;20631;-65
2021/12/21 07:44:07;;;;;;;19.23;8.55;;;;;;;;;;4958094;28;20458;-65
2021/12/21 07:46:34;;;;;;;18.23;11.07;;;;;;;;;;4960182;28;20487;-65
2021/12/21 07:49:01;;;;;;;18.98;8.90;;;;;;;;;;4960884;28;20066;-65
2021/12/21 07:51:28;;;;;;;20.02;9.70;;;;;;;;;;4956024;28;20573;-64
2021/12/21 07:53:55;;;;;;;21.38;9.73;;;;;;;;;;4959679;28;20078;-65
2021/12/21 07:56:21;;;;;;;20.23;11.50;;;;;;;;;;4961588;28;20121;-64
2021/12/21 07:58:48;;;;;;;25.67;11.95;;;;;;;;;;4959511;28;20111;-64
2021/12/21 08:01:15;;;;;;;18.73;10.00;;;;;;;;;;4960797;28;20157;-65
2021/12/21 08:03:42;;;;;;;21.70;10.55;;;;;;;;;;4940300;28;20047;-65
2021/12/21 08:06:12;;;;;;;20.23;11.10;;;;;;;;;;4958252;28;20055;-65
2021/12/21 08:08:42;;;;;;;22.30;10.90;;;;;;;;;;4959641;28;20117;-66
2021/12/21 08:11:16;;;;;;;23.70;11.75;;;;;;;;;;4955766;28;20047;-66
2021/12/21 08:13:46;;;;;;;18.88;11.82;;;;;;;;;;4956522;28;20470;-65
2021/12/21 08:16:13;;;;;;;23.90;10.38;;;;;;;;;;4959441;28;20051;-64
2021/12/21 08:18:40;;;;;;;18.75;11.15;;;;;;;;;;4956749;28;20087;-65
2021/12/21 08:21:06;;;;;;;19.60;10.13;;;;;;;;;;4957465;28;20129;-67
2021/12/21 08:23:33;;;;;;;21.85;10.15;;;;;;;;;;4957014;28;20090;-67
2021/12/21 08:26:00;;;;;;;16.23;9.70;;;;;;;;;;4954161;28;20055;-67
2021/12/21 08:28:26;;;;;;;24.80;10.02;;;;;;;;;;4956890;28;20050;-65
2021/12/21 08:30:53;;;;;;;14.95;10.38;;;;;;;;;;4956364;28;20051;-64
2021/12/21 08:33:21;;;;;;;18.52;10.23;;;;;;;;;;4956967;28;20050;-66
2021/12/21 08:35:48;;;;;;;20.55;11.00;;;;;;;;;;4961171;28;20055;-71
2021/12/21 08:38:17;;;;;;;23.88;11.13;;;;;;;;;;4965673;28;20106;-70
2021/12/21 08:40:49;;;;;;;24.80;12.15;;;;;;;;;;4959463;28;20075;-69
2021/12/21 08:43:19;;;;;;;25.77;13.45;;;;;;;;;;4957399;28;20054;-68
2021/12/21 08:45:48;;;;;;;26.80;12.80;;;;;;;;;;4965315;28;20110;-65
2021/12/21 08:48:15;;;;;;;25.67;13.02;;;;;;;;;;4963180;28;20102;-72
2021/12/21 08:50:42;;;;;;;31.63;13.85;;;;;;;;;;4961302;28;20505;-68
2021/12/21 08:53:08;;;;;;;25.80;12.90;;;;;;;;;;4962931;28;20059;-70
2021/12/21 08:55:35;;;;;;;24.02;11.48;;;;;;;;;;4962732;28;20473;-68
2021/12/21 08:58:02;;;;;;;18.52;11.27;;;;;;;;;;4960779;28;20051;-64
2021/12/21 09:00:28;;;;;;;18.90;11.57;;;;;;;;;;4960214;28;20184;-64
2021/12/21 09:02:55;;;;;;;19.33;10.35;;;;;;;;;;5013756;23;20046;-67
2021/12/21 09:05:26;;;;;;;20.73;11.20;;;;;;;;;;4992442;28;20051;-66
2021/12/21 09:07:53;;;;;;;22.83;10.77;;;;;;;;;;4993231;28;20046;-66
2021/12/21 09:10:21;;;;;;;27.20;10.50;;;;;;;;;;4993332;28;20050;-67
2021/12/21 09:12:48;;;;;;;18.35;10.15;;;;;;;;;;4982252;28;20326;-67
2021/12/21 09:15:16;;;;;;;18.17;10.38;;;;;;;;;;4981103;28;20046;-67
2021/12/21 09:17:44;;;;;;;18.85;10.20;;;;;;;;;;4984459;28;20086;-65
2021/12/21 09:20:13;;;;;;;21.88;9.45;;;;;;;;;;4980581;28;20077;-66
2021/12/21 09:22:45;;;;;;;14.80;10.30;;;;;;;;;;4981897;28;20051;-65
2021/12/21 09:25:12;;;;;;;23.02;10.85;;;;;;;;;;4979680;28;20129;-67
2021/12/21 09:27:39;;;;;;;17.60;9.60;;;;;;;;;;4981085;28;20469;-64
2021/12/21 09:30:08;;;;;;;17.02;10.52;;;;;;;;;;4979958;28;20055;-67
2021/12/21 09:32:34;;;;;;;15.98;9.88;;;;;;;;;;4979720;28;20050;-67
2021/12/21 09:35:01;;;;;;;15.90;8.70;;;;;;;;;;4979685;28;20047;-66
2021/12/21 09:37:28;;;;;;;13.10;9.13;;;;;;;;;;4979135;28;20050;-65
2021/12/21 09:39:56;;;;;;;14.30;9.15;;;;;;;;;;4980107;28;20046;-67
2021/12/21 09:42:24;;;;;;;15.18;8.93;;;;;;;;;;4982135;28;20058;-67
2021/12/21 09:44:52;;;;;;;14.80;9.05;;;;;;;;;;4980762;28;20129;-66
2021/12/21 09:47:19;;;;;;;13.65;7.78;;;;;;;;;;4979911;28;20066;-67
2021/12/21 09:49:46;;;;;;;16.42;7.45;;;;;;;;;;4981203;28;20501;-66
2021/12/21 09:52:20;;;;;;;14.82;9.00;;;;;;;;;;4979192;28;20141;-65
2021/12/21 09:54:47;;;;;;;15.07;7.15;;;;;;;;;;4980827;28;20517;-68
2021/12/21 09:57:17;;;;;;;10.98;6.70;;;;;;;;;;4979119;28;20058;-67
2021/12/21 09:59:44;;;;;;;13.05;7.22;;;;;;;;;;4981321;28;20046;-66
2021/12/21 10:02:12;;;;;;;9.85;7.30;;;;;;;;;;4979784;28;20078;-67
2021/12/21 10:04:48;;;;;;;11.27;6.88;;;;;;;;;;4982137;28;20043;-68
2021/12/21 10:07:15;;;;;;;16.08;7.95;;;;;;;;;;4986174;28;20042;-66
2021/12/21 10:09:46;;;;;;;12.43;8.15;;;;;;;;;;4979208;28;20078;-67
2021/12/21 10:12:14;;;;;;;17.05;8.85;;;;;;;;;;4979473;28;20061;-68
2021/12/21 10:14:41;;;;;;;12.13;7.57;;;;;;;;;;4978960;28;20082;-66
2021/12/21 10:17:09;;;;;;;13.82;8.40;;;;;;;;;;4982207;28;20054;-66
2021/12/21 10:19:37;;;;;;;14.23;8.07;;;;;;;;;;4979351;28;20128;-68
2021/12/21 10:22:15;;;;;;;14.45;7.78;;;;;;;;;;4979582;28;20058;-66
2021/12/21 10:24:49;;;;;;;14.27;8.18;;;;;;;;;;4982900;28;20507;-66
2021/12/21 10:27:18;;;;;;;16.27;7.65;;;;;;;;;;4979754;28;20050;-66
2021/12/21 10:29:52;;;;;;;15.48;8.25;;;;;;;;;;4980189;28;20050;-67
2021/12/21 10:32:32;;;;;;;11.50;7.78;;;;;;;;;;4981263;28;20050;-67
2021/12/21 10:35:07;;;;;;;11.45;7.78;;;;;;;;;;4979541;28;20042;-67
2021/12/21 10:37:37;;;;;;;14.00;8.32;;;;;;;;;;4981664;28;20533;-68
2021/12/21 10:40:26;;;;;;;13.68;8.02;;;;;;;;;;4981051;28;20078;-68
2021/12/21 10:42:54;;;;;;;14.25;8.07;;;;;;;;;;4979752;28;20050;-66
2021/12/21 10:45:42;;;;;;;12.68;7.93;;;;;;;;;;4978376;28;20050;-66
2021/12/21 10:48:17;;;;;;;14.70;7.90;;;;;;;;;;4965583;28;20078;-67
2021/12/21 10:50:44;;;;;;;13.80;7.85;;;;;;;;;;4977900;28;20486;-67
2021/12/21 10:53:23;;;;;;;15.02;9.43;;;;;;;;;;4977968;28;20090;-67
2021/12/21 10:56:07;;;;;;;13.75;8.80;;;;;;;;;;4979188;28;20108;-67
2021/12/21 10:58:42;;;;;;;11.15;7.00;;;;;;;;;;4979110;28;20081;-67
2021/12/21 11:01:13;;;;;;;16.45;9.25;;;;;;;;;;4976293;28;20497;-66
2021/12/21 11:03:51;;;;;;;13.27;7.47;;;;;;;;;;4976356;28;20053;-66
2021/12/21 11:06:29;;;;;;;10.82;7.35;;;;;;;;;;4978302;28;20137;-66
2021/12/21 11:08:57;;;;;;;11.27;6.35;;;;;;;;;;4983423;28;20097;-65
2021/12/21 11:11:29;;;;;;;14.50;7.22;;;;;;;;;;4989103;28;20567;-66
2021/12/21 11:14:03;;;;;;;12.02;6.57;;;;;;;;;;4987510;28;20050;-67
2021/12/21 11:16:36;;;;;;;12.77;6.43;;;;;;;;;;4989866;28;20540;-67
2021/12/21 11:19:03;;;;;;;10.18;6.38;;;;;;;;;;4990628;28;20046;-66
2021/12/21 11:21:30;;;;;;;13.63;6.63;;;;;;;;;;4989618;28;20054;-66
2021/12/21 11:24:01;;;;;;;8.10;5.57;;;;;;;;;;4990361;28;20417;-67
2021/12/21 11:26:28;;;;;;;7.40;5.50;;;;;;;;;;4973546;28;20061;-66
2021/12/21 11:28:55;;;;;;;10.23;5.50;;;;;;;;;;4973046;28;20054;-67
2021/12/21 11:31:22;;;;;;;10.50;5.65;;;;;;;;;;4989831;28;20136;-68
2021/12/21 11:33:49;;;;;;;10.07;5.68;;;;;;;;;;4956446;28;20050;-67
2021/12/21 11:39:03;;;;;;;8.00;5.10;;;;;;;;;;4990198;28;20055;-66
2021/12/21 11:41:31;;;;;;;8.45;5.70;;;;;;;;;;4989901;28;20058;-67
2021/12/21 11:44:06;;;;;;;8.43;4.95;;;;;;;;;;4957022;28;20099;-66
2021/12/21 11:47:01;;;;;;;7.35;5.35;;;;;;;;;;4956709;28;20057;-66
2021/12/21 11:49:27;;;;;;;10.90;5.30;;;;;;;;;;4959520;28;20058;-67
2021/12/21 11:52:05;;;;;;;8.10;4.85;;;;;;;;;;4969074;28;20054;-66
2021/12/21 11:54:50;;;;;;;7.65;4.43;;;;;;;;;;4982231;28;20404;-66
2021/12/21 11:57:18;;;;;;;8.13;5.10;;;;;;;;;;4977324;28;20469;-68
2021/12/21 11:59:47;;;;;;;9.23;5.28;;;;;;;;;;4979539;28;20054;-67
2021/12/21 12:02:14;;;;;;;7.13;4.50;;;;;;;;;;4976471;28;20505;-67
2021/12/21 12:04:41;;;;;;;8.43;4.65;;;;;;;;;;4974995;28;20101;-68
2021/12/21 12:07:16;;;;;;;9.82;4.40;;;;;;;;;;4978204;28;20113;-69
2021/12/21 12:09:43;;;;;;;7.97;4.72;;;;;;;;;;4977599;28;20058;-69
2021/12/21 12:12:14;;;;;;;7.63;4.13;;;;;;;;;;4978385;28;20104;-68
2021/12/21 12:14:42;;;;;;;6.85;4.57;;;;;;;;;;4978654;28;20125;-68
2021/12/21 12:17:16;;;;;;;8.27;4.72;;;;;;;;;;4977265;28;20055;-69
2021/12/21 12:19:55;;;;;;;7.68;3.55;;;;;;;;;;4980497;28;20526;-68
2021/12/21 12:22:37;;;;;;;7.85;4.35;;;;;;;;;;4983006;28;20167;-69
2021/12/21 12:25:06;;;;;;;5.63;3.53;;;;;;;;;;4984324;28;20569;-70
2021/12/21 12:27:41;;;;;;;5.97;3.20;;;;;;;;;;4982771;28;20097;-69
2021/12/21 12:30:14;;;;;;;7.18;3.30;;;;;;;;;;4983009;28;20050;-70
2021/12/21 12:32:43;;;;;;;10.73;4.22;;;;;;;;;;4980806;28;20075;-70
2021/12/21 12:35:16;;;;;;;4.95;3.90;;;;;;;;;;4982575;28;20046;-67
2021/12/21 12:37:50;;;;;;;;;;;;;;;;;;4982722;28;20058;-68
2021/12/21 12:40:18;;;;;;;6.22;3.42;;;;;;;;;;4981180;28;20016;-66
2021/12/21 12:43:08;;;;;;;6.72;3.30;;;;;;;;;;4982667;28;20109;-68
2021/12/21 12:46:02;;;;;;;4.57;3.33;;;;;;;;;;4983150;28;20109;-67
2021/12/21 12:48:32;;;;;;;6.50;3.40;;;;;;;;;;4980419;28;20459;-68
2021/12/21 12:51:02;;;;;;;6.40;3.70;;;;;;;;;;4986135;28;20500;-68
2021/12/21 12:53:42;;;;;;;5.93;3.50;;;;;;;;;;4984676;28;20105;-68
2021/12/21 12:56:14;;;;;;;5.43;3.22;;;;;;;;;;4977374;28;20054;-66
2021/12/21 12:59:07;;;;;;;8.65;3.50;;;;;;;;;;4986564;28;20057;-67
2021/12/21 13:01:45;;;;;;;4.75;2.72;;;;;;;;;;4969058;28;20477;-68
2021/12/21 13:04:13;;;;;;;7.32;3.65;;;;;;;;;;4983655;28;20054;-67
2021/12/21 13:06:42;;;;;;;7.30;3.42;;;;;;;;;;4980647;28;20051;-68
2021/12/21 13:09:12;;;;;;;6.63;3.20;;;;;;;;;;4983907;28;20054;-67
2021/12/21 13:11:40;;;;;;;5.38;3.35;;;;;;;;;;4981449;28;20113;-68
2021/12/21 13:14:09;;;;;;;6.00;3.50;;;;;;;;;;4984329;28;20066;-68
2021/12/21 13:16:36;;;;;;;7.20;3.67;;;;;;;;;;4979762;28;20058;-69
2021/12/21 13:19:12;;;;;;;5.25;3.40;;;;;;;;;;4980084;28;20050;-69
2021/12/21 13:21:44;;;;;;;5.57;3.85;;;;;;;;;;4964758;28;20290;-69
2021/12/21 13:24:16;;;;;;;4.38;3.35;;;;;;;;;;4979255;28;20156;-67
2021/12/21 13:26:55;;;;;;;8.00;3.50;;;;;;;;;;4983435;28;20046;-67
2021/12/21 13:29:25;;;;;;;4.28;3.00;;;;;;;;;;4981671;28;20054;-66
2021/12/21 13:31:53;;;;;;;3.30;3.00;;;;;;;;;;4980398;28;20054;-66
2021/12/21 13:34:22;;;;;;;4.65;3.10;;;;;;;;;;4980839;28;20501;-66
2021/12/21 13:36:53;;;;;;;6.82;3.28;;;;;;;;;;4983517;28;20053;-65
2021/12/21 13:39:31;;;;;;;8.15;3.47;;;;;;;;;;4979892;28;20054;-66
2021/12/21 13:41:59;;;;;;;4.60;3.63;;;;;;;;;;4981778;28;20042;-66
2021/12/21 13:44:27;;;;;;;5.85;3.65;;;;;;;;;;4979897;28;20051;-65
2021/12/21 13:46:56;;;;;;;7.03;3.20;;;;;;;;;;4981422;28;20093;-66
2021/12/21 13:50:10;;;;;;;6.55;3.28;;;;;;;;;;4971789;28;20042;-66
2021/12/21 13:52:44;;;;;;;5.85;3.03;;;;;;;;;;4983015;28;20054;-66
2021/12/21 13:55:24;;;;;;;5.75;3.00;;;;;;;;;;4980922;28;20043;-67
2021/12/21 13:57:52;;;;;;;6.40;3.38;;;;;;;;;;4979830;28;20043;-66
2021/12/21 14:00:20;;;;;;;5.35;3.65;;;;;;;;;;4981516;28;20050;-66
2021/12/21 14:03:15;;;;;;;4.22;3.70;;;;;;;;;;4962906;28;20105;-67
2021/12/21 14:05:43;;;;;;;5.00;3.45;;;;;;;;;;4979746;28;20081;-67
2021/12/21 14:08:11;;;;;;;5.10;3.50;;;;;;;;;;4980406;28;20459;-67
2021/12/21 14:10:42;;;;;;;7.18;3.35;;;;;;;;;;4980329;28;20054;-67
2021/12/21 14:13:08;;;;;;;8.30;3.35;;;;;;;;;;4979431;28;20442;-67
2021/12/21 14:15:40;;;;;;;7.03;3.42;;;;;;;;;;4981136;28;20089;-67
2021/12/21 14:18:18;;;;;;;5.90;3.58;;;;;;;;;;4979468;28;20101;-66
2021/12/21 14:20:45;;;;;;;6.15;3.33;;;;;;;;;;4982454;28;20109;-66
2021/12/21 14:23:19;;;;;;;5.47;3.33;;;;;;;;;;4977719;28;20113;-66
2021/12/21 14:25:46;;;;;;;6.90;3.20;;;;;;;;;;4981094;28;20046;-65
2021/12/21 14:28:13;;;;;;;4.88;3.50;;;;;;;;;;4981074;28;20105;-67
2021/12/21 14:30:40;;;;;;;7.88;3.95;;;;;;;;;;4979412;28;20458;-66
2021/12/21 14:33:28;;;;;;;7.13;3.42;;;;;;;;;;4981654;28;20108;-66
2021/12/21 14:35:59;;;;;;;5.15;3.17;;;;;;;;;;4985108;28;20074;-66
2021/12/21 14:38:26;;;;;;;5.57;3.22;;;;;;;;;;4978986;28;20055;-69
2021/12/21 14:40:53;;;;;;;6.47;3.40;;;;;;;;;;4978995;28;20054;-69
2021/12/21 14:43:23;;;;;;;7.32;4.07;;;;;;;;;;4978455;28;20054;-68
2021/12/21 14:45:50;;;;;;;5.97;3.80;;;;;;;;;;4980148;28;20267;-68
2021/12/21 14:48:18;;;;;;;9.80;4.38;;;;;;;;;;4978990;28;20501;-69
2021/12/21 14:50:49;;;;;;;6.15;3.90;;;;;;;;;;4982342;28;20105;-68
2021/12/21 14:53:21;;;;;;;5.68;3.47;;;;;;;;;;4982087;28;20050;-67
2021/12/21 14:55:48;;;;;;;8.57;3.35;;;;;;;;;;4978350;28;20089;-68
2021/12/21 14:58:18;;;;;;;12.30;4.60;;;;;;;;;;4980196;28;20051;-67
2021/12/21 15:00:52;;;;;;;10.48;5.30;;;;;;;;;;4978908;28;20054;-67
2021/12/21 15:03:19;;;;;;;8.30;4.28;;;;;;;;;;5013703;23;20047;-66
2021/12/21 15:05:47;;;;;;;5.18;3.55;;;;;;;;;;4930732;28;20046;-69
2021/12/21 15:08:16;;;;;;;7.22;4.05;;;;;;;;;;4932650;28;20050;-70
2021/12/21 15:10:43;;;;;;;6.63;3.97;;;;;;;;;;4947565;28;20046;-68
2021/12/21 15:13:12;;;;;;;9.23;4.90;;;;;;;;;;4953899;28;20060;-69
2021/12/21 15:15:39;;;;;;;7.22;4.68;;;;;;;;;;4977728;28;20047;-69
2021/12/21 15:18:07;;;;;;;6.93;4.25;;;;;;;;;;4973871;28;20414;-67
2021/12/21 15:20:34;;;;;;;4.45;3.83;;;;;;;;;;4976395;28;20074;-65
2021/12/21 15:23:01;;;;;;;8.18;3.90;;;;;;;;;;4973657;28;20130;-67
2021/12/21 15:25:28;;;;;;;6.60;4.40;;;;;;;;;;4975262;28;20043;-68
2021/12/21 15:27:55;;;;;;;8.63;4.70;;;;;;;;;;4944003;28;20062;-67
2021/12/21 15:30:24;;;;;;;9.10;4.30;;;;;;;;;;4927376;28;20501;-67
2021/12/21 15:32:51;;;;;;;5.72;4.30;;;;;;;;;;4958467;28;20102;-66
2021/12/21 15:35:19;;;;;;;8.80;5.03;;;;;;;;;;4926313;28;20047;-67
2021/12/21 15:37:47;;;;;;;7.80;5.00;;;;;;;;;;4943170;28;20051;-67
2021/12/21 15:40:17;;;;;;;7.38;4.50;;;;;;;;;;4941637;28;20055;-67
2021/12/21 15:42:45;;;;;;;6.07;4.13;;;;;;;;;;4977423;28;20050;-67
2021/12/21 15:45:14;;;;;;;7.55;3.95;;;;;;;;;;4973476;28;20047;-67
2021/12/21 15:47:41;;;;;;;7.95;5.03;;;;;;;;;;4975664;28;20137;-66
2021/12/21 15:50:09;;;;;;;7.30;4.10;;;;;;;;;;4970645;28;20073;-67
2021/12/21 15:52:36;;;;;;;6.45;4.50;;;;;;;;;;4943194;28;20138;-64
2021/12/21 15:55:06;;;;;;;8.40;4.03;;;;;;;;;;4941621;28;20055;-64